首页
METAR-TAF:

METAR-TAF

机场 :

馬拉博機場

馬拉博, 赤道几内亚

纬度: 03-45-18N, 经度: 08-42-31E, 海拔: 23米

当前天气观测

该预报发布于30分钟前的20:30 UTC
风速8节,风向西南
温度 25°C
湿度 100%
气压 1012 hPa
能見度: 8000
多云层高于800英尺
少量云层高于2000英尺, 积雨云.
雷暴, 小雨,

METAR: FGSL 252030Z 23008KT 8000 -TSRA BKN008 FEW020CB 25/25 Q1012 NOSIG

时间: 22:00 (21:00 UTC)

预报

该预报发布于16小时和0分钟前的05:00 UTC
预报有效从25日的 06点(UTC)到 26日的 12点(UTC)
风速7节,风向西转西南
能见度10公里或以上
散云层高于1000英尺
几率 40% :
短暂存在
从 25日的 06点(UTC)到 25日的 10点(UTC)
能見度: 4000
多云层高于800英尺
少量云层高于1600英尺, 积雨云.
雷暴, 雨
短暂存在
从 25日的 12点(UTC)到 25日的 17点(UTC)
能見度: 4500
多云层高于1000英尺
少量云层高于1800英尺, 积雨云.

TAF: FGSL 250500Z 2506/2612 24007KT 9999 SCT010 PROB40 TEMPO 2506/2510 4000 TSRA BKN008 FEW016CB TEMPO 2512/2517 4500 TSSHRA BKN010 FEW018CB

超过4000个机场的气象观测和天气预报(METAR&TAF报告)。

可查询的气象台以黄色和红色小点在地图上表示。

将鼠标移到小点上方,可查看气象台名称。

然后点击查看天气观测和预报。

如需切换地图:点击带黑十字的绿色按钮放大地图;点击带横线的绿色按钮缩小地图;或者点击绿色箭头查看邻近地区的地图。


METAR-TAF: